sensor_id;sensor_type;location;lat;lon;timestamp;temperature;humidity
10062;DHT22;5070;52.382;5.270;2023-03-14T00:01:31;18.70;81.70
10062;DHT22;5070;52.382;5.270;2023-03-14T00:04:03;18.70;81.80
10062;DHT22;5070;52.382;5.270;2023-03-14T00:06:31;18.70;81.80
10062;DHT22;5070;52.382;5.270;2023-03-14T00:08:59;18.70;81.60
10062;DHT22;5070;52.382;5.270;2023-03-14T00:11:30;18.70;81.70
10062;DHT22;5070;52.382;5.270;2023-03-14T00:13:58;18.70;81.80
10062;DHT22;5070;52.382;5.270;2023-03-14T00:16:28;18.60;81.50
10062;DHT22;5070;52.382;5.270;2023-03-14T00:19:17;18.60;81.40
10062;DHT22;5070;52.382;5.270;2023-03-14T00:21:45;18.60;81.40
10062;DHT22;5070;52.382;5.270;2023-03-14T00:24:13;18.60;81.10
10062;DHT22;5070;52.382;5.270;2023-03-14T00:26:41;18.60;81.20
10062;DHT22;5070;52.382;5.270;2023-03-14T00:29:09;18.60;81.20
10062;DHT22;5070;52.382;5.270;2023-03-14T00:31:44;18.60;81.20
10062;DHT22;5070;52.382;5.270;2023-03-14T00:34:12;18.60;81.20
10062;DHT22;5070;52.382;5.270;2023-03-14T00:36:44;18.60;81.10
10062;DHT22;5070;52.382;5.270;2023-03-14T00:39:12;18.60;81.00
10062;DHT22;5070;52.382;5.270;2023-03-14T00:41:45;18.50;80.80
10062;DHT22;5070;52.382;5.270;2023-03-14T00:44:14;18.50;80.80
10062;DHT22;5070;52.382;5.270;2023-03-14T00:46:46;18.50;80.80
10062;DHT22;5070;52.382;5.270;2023-03-14T00:49:14;18.50;80.60
10062;DHT22;5070;52.382;5.270;2023-03-14T00:51:44;18.50;80.60
10062;DHT22;5070;52.382;5.270;2023-03-14T00:54:12;18.50;80.20
10062;DHT22;5070;52.382;5.270;2023-03-14T00:56:40;18.40;80.00
10062;DHT22;5070;52.382;5.270;2023-03-14T00:59:08;18.50;80.20
10062;DHT22;5070;52.382;5.270;2023-03-14T01:01:36;18.50;80.10
10062;DHT22;5070;52.382;5.270;2023-03-14T01:04:05;18.40;80.00
10062;DHT22;5070;52.382;5.270;2023-03-14T01:06:36;18.40;79.90
10062;DHT22;5070;52.382;5.270;2023-03-14T01:09:07;18.40;79.90
10062;DHT22;5070;52.382;5.270;2023-03-14T01:11:36;18.40;79.80
10062;DHT22;5070;52.382;5.270;2023-03-14T01:14:04;18.40;79.70
10062;DHT22;5070;52.382;5.270;2023-03-14T01:16:34;18.40;79.90
10062;DHT22;5070;52.382;5.270;2023-03-14T01:19:03;18.40;79.80
10062;DHT22;5070;52.382;5.270;2023-03-14T01:21:32;18.40;79.90
10062;DHT22;5070;52.382;5.270;2023-03-14T01:24:01;18.40;79.60
10062;DHT22;5070;52.382;5.270;2023-03-14T01:26:32;18.40;79.40
10062;DHT22;5070;52.382;5.270;2023-03-14T01:29:03;18.30;79.60
10062;DHT22;5070;52.382;5.270;2023-03-14T01:31:34;18.40;79.60
10062;DHT22;5070;52.382;5.270;2023-03-14T01:34:05;18.30;79.50
10062;DHT22;5070;52.382;5.270;2023-03-14T01:36:33;18.30;79.70
10062;DHT22;5070;52.382;5.270;2023-03-14T01:39:01;18.30;79.70
10062;DHT22;5070;52.382;5.270;2023-03-14T01:41:31;18.30;80.00
10062;DHT22;5070;52.382;5.270;2023-03-14T01:44:02;18.30;79.70
10062;DHT22;5070;52.382;5.270;2023-03-14T01:46:37;18.30;79.60
10062;DHT22;5070;52.382;5.270;2023-03-14T01:49:22;18.30;79.60
10062;DHT22;5070;52.382;5.270;2023-03-14T01:52:25;18.30;79.70
10062;DHT22;5070;52.382;5.270;2023-03-14T01:54:58;18.30;79.60
10062;DHT22;5070;52.382;5.270;2023-03-14T01:57:32;18.30;79.70
10062;DHT22;5070;52.382;5.270;2023-03-14T02:00:06;18.30;79.70
10062;DHT22;5070;52.382;5.270;2023-03-14T02:02:43;18.30;79.60
10062;DHT22;5070;52.382;5.270;2023-03-14T02:05:18;18.20;79.50
10062;DHT22;5070;52.382;5.270;2023-03-14T02:07:54;18.30;79.60
10062;DHT22;5070;52.382;5.270;2023-03-14T02:10:33;18.20;79.50
10062;DHT22;5070;52.382;5.270;2023-03-14T02:13:05;18.20;79.50
10062;DHT22;5070;52.382;5.270;2023-03-14T02:15:53;18.20;79.50
10062;DHT22;5070;52.382;5.270;2023-03-14T02:18:42;18.20;79.50
10062;DHT22;5070;52.382;5.270;2023-03-14T02:21:38;18.20;79.40
10062;DHT22;5070;52.382;5.270;2023-03-14T02:24:14;18.20;79.50
10062;DHT22;5070;52.382;5.270;2023-03-14T02:27:07;18.20;79.30
10062;DHT22;5070;52.382;5.270;2023-03-14T02:29:43;18.20;79.30
10062;DHT22;5070;52.382;5.270;2023-03-14T02:32:13;18.20;79.30
10062;DHT22;5070;52.382;5.270;2023-03-14T02:34:43;18.20;79.20
10062;DHT22;5070;52.382;5.270;2023-03-14T02:37:13;18.10;79.10
10062;DHT22;5070;52.382;5.270;2023-03-14T02:39:44;18.10;79.20
10062;DHT22;5070;52.382;5.270;2023-03-14T02:42:16;18.10;79.00
10062;DHT22;5070;52.382;5.270;2023-03-14T02:44:52;18.10;79.00
10062;DHT22;5070;52.382;5.270;2023-03-14T02:47:27;18.10;79.10
10062;DHT22;5070;52.382;5.270;2023-03-14T02:50:00;18.10;79.00
10062;DHT22;5070;52.382;5.270;2023-03-14T02:52:29;18.10;79.10
10062;DHT22;5070;52.382;5.270;2023-03-14T02:54:57;18.10;79.00
10062;DHT22;5070;52.382;5.270;2023-03-14T02:57:27;18.10;79.10
10062;DHT22;5070;52.382;5.270;2023-03-14T02:59:58;18.10;79.00
10062;DHT22;5070;52.382;5.270;2023-03-14T03:02:27;18.10;78.90
10062;DHT22;5070;52.382;5.270;2023-03-14T03:04:55;18.10;79.00
10062;DHT22;5070;52.382;5.270;2023-03-14T03:07:23;18.10;78.90
10062;DHT22;5070;52.382;5.270;2023-03-14T03:09:54;18.10;78.80
10062;DHT22;5070;52.382;5.270;2023-03-14T03:12:22;18.10;79.00
10062;DHT22;5070;52.382;5.270;2023-03-14T03:14:51;18.00;78.90
10062;DHT22;5070;52.382;5.270;2023-03-14T03:17:19;18.00;79.00
10062;DHT22;5070;52.382;5.270;2023-03-14T03:19:47;18.00;79.00
10062;DHT22;5070;52.382;5.270;2023-03-14T03:22:16;18.00;78.90
10062;DHT22;5070;52.382;5.270;2023-03-14T03:24:44;18.00;78.90
10062;DHT22;5070;52.382;5.270;2023-03-14T03:27:12;18.00;78.90
10062;DHT22;5070;52.382;5.270;2023-03-14T03:29:40;18.00;78.80
10062;DHT22;5070;52.382;5.270;2023-03-14T03:32:09;18.00;78.80
10062;DHT22;5070;52.382;5.270;2023-03-14T03:34:37;18.00;78.70
10062;DHT22;5070;52.382;5.270;2023-03-14T03:37:06;18.00;78.60
10062;DHT22;5070;52.382;5.270;2023-03-14T03:39:37;18.00;78.70
10062;DHT22;5070;52.382;5.270;2023-03-14T03:42:05;18.00;78.60
10062;DHT22;5070;52.382;5.270;2023-03-14T03:44:34;18.00;78.60
10062;DHT22;5070;52.382;5.270;2023-03-14T03:47:02;18.00;78.70
10062;DHT22;5070;52.382;5.270;2023-03-14T03:49:32;18.00;78.50
10062;DHT22;5070;52.382;5.270;2023-03-14T03:52:00;18.00;78.50
10062;DHT22;5070;52.382;5.270;2023-03-14T03:54:28;18.00;78.40
10062;DHT22;5070;52.382;5.270;2023-03-14T03:56:56;18.00;78.50
10062;DHT22;5070;52.382;5.270;2023-03-14T03:59:26;18.00;78.50
10062;DHT22;5070;52.382;5.270;2023-03-14T04:01:55;17.90;78.30
10062;DHT22;5070;52.382;5.270;2023-03-14T04:04:23;17.90;78.30
10062;DHT22;5070;52.382;5.270;2023-03-14T04:06:55;17.90;78.20
10062;DHT22;5070;52.382;5.270;2023-03-14T04:09:23;17.90;78.20
10062;DHT22;5070;52.382;5.270;2023-03-14T04:12:07;17.90;78.20
10062;DHT22;5070;52.382;5.270;2023-03-14T04:14:53;17.90;78.20
10062;DHT22;5070;52.382;5.270;2023-03-14T04:17:22;17.90;78.10
10062;DHT22;5070;52.382;5.270;2023-03-14T04:19:50;17.90;78.00
10062;DHT22;5070;52.382;5.270;2023-03-14T04:22:24;17.90;78.00
10062;DHT22;5070;52.382;5.270;2023-03-14T04:24:53;17.90;78.10
10062;DHT22;5070;52.382;5.270;2023-03-14T04:27:21;17.90;78.00
10062;DHT22;5070;52.382;5.270;2023-03-14T04:29:52;17.90;77.90
10062;DHT22;5070;52.382;5.270;2023-03-14T04:32:34;17.90;78.00
10062;DHT22;5070;52.382;5.270;2023-03-14T04:35:02;17.90;77.90
10062;DHT22;5070;52.382;5.270;2023-03-14T04:37:32;17.90;77.90
10062;DHT22;5070;52.382;5.270;2023-03-14T04:40:00;17.90;77.90
10062;DHT22;5070;52.382;5.270;2023-03-14T04:42:32;17.80;77.90
10062;DHT22;5070;52.382;5.270;2023-03-14T04:45:00;17.80;77.80
10062;DHT22;5070;52.382;5.270;2023-03-14T04:47:33;17.80;77.80
10062;DHT22;5070;52.382;5.270;2023-03-14T04:50:03;17.80;77.80
10062;DHT22;5070;52.382;5.270;2023-03-14T04:52:32;17.80;77.90
10062;DHT22;5070;52.382;5.270;2023-03-14T04:55:01;17.80;77.90
10062;DHT22;5070;52.382;5.270;2023-03-14T04:57:29;17.80;77.80
10062;DHT22;5070;52.382;5.270;2023-03-14T04:59:58;17.80;78.00
10062;DHT22;5070;52.382;5.270;2023-03-14T05:02:45;17.80;78.00
10062;DHT22;5070;52.382;5.270;2023-03-14T05:05:32;17.80;78.00
10062;DHT22;5070;52.382;5.270;2023-03-14T05:08:14;17.80;78.00
10062;DHT22;5070;52.382;5.270;2023-03-14T05:10:42;17.80;77.90
10062;DHT22;5070;52.382;5.270;2023-03-14T05:13:30;17.80;78.00
10062;DHT22;5070;52.382;5.270;2023-03-14T05:16:15;17.80;77.90
10062;DHT22;5070;52.382;5.270;2023-03-14T05:18:50;17.80;78.00
10062;DHT22;5070;52.382;5.270;2023-03-14T05:21:37;17.80;78.10
10062;DHT22;5070;52.382;5.270;2023-03-14T05:24:42;17.70;78.00
10062;DHT22;5070;52.382;5.270;2023-03-14T05:27:25;17.70;78.00
10062;DHT22;5070;52.382;5.270;2023-03-14T05:30:09;17.70;78.00
10062;DHT22;5070;52.382;5.270;2023-03-14T05:32:55;17.70;77.90
10062;DHT22;5070;52.382;5.270;2023-03-14T05:35:39;17.70;78.00
10062;DHT22;5070;52.382;5.270;2023-03-14T05:38:25;17.70;78.00
10062;DHT22;5070;52.382;5.270;2023-03-14T05:41:04;17.70;78.00
10062;DHT22;5070;52.382;5.270;2023-03-14T05:43:56;17.70;78.10
10062;DHT22;5070;52.382;5.270;2023-03-14T05:46:36;17.70;78.10
10062;DHT22;5070;52.382;5.270;2023-03-14T05:49:33;17.70;78.10
10062;DHT22;5070;52.382;5.270;2023-03-14T05:52:17;17.70;78.20
10062;DHT22;5070;52.382;5.270;2023-03-14T05:54:54;17.70;78.20
10062;DHT22;5070;52.382;5.270;2023-03-14T05:57:36;17.70;78.20
10062;DHT22;5070;52.382;5.270;2023-03-14T06:00:22;17.70;78.20
10062;DHT22;5070;52.382;5.270;2023-03-14T06:03:10;17.70;78.20
10062;DHT22;5070;52.382;5.270;2023-03-14T06:05:42;17.70;78.20
10062;DHT22;5070;52.382;5.270;2023-03-14T06:08:11;17.60;78.20
10062;DHT22;5070;52.382;5.270;2023-03-14T06:10:39;17.60;78.20
10062;DHT22;5070;52.382;5.270;2023-03-14T06:13:09;17.60;78.10
10062;DHT22;5070;52.382;5.270;2023-03-14T06:15:37;17.60;78.10
10062;DHT22;5070;52.382;5.270;2023-03-14T06:18:05;17.60;78.10
10062;DHT22;5070;52.382;5.270;2023-03-14T06:20:36;17.60;78.10
10062;DHT22;5070;52.382;5.270;2023-03-14T06:23:07;17.60;78.10
10062;DHT22;5070;52.382;5.270;2023-03-14T06:25:36;17.60;78.00
10062;DHT22;5070;52.382;5.270;2023-03-14T06:28:04;17.60;78.00
10062;DHT22;5070;52.382;5.270;2023-03-14T06:30:34;17.60;78.00
10062;DHT22;5070;52.382;5.270;2023-03-14T06:33:02;17.60;77.90
10062;DHT22;5070;52.382;5.270;2023-03-14T06:35:30;17.60;77.90
10062;DHT22;5070;52.382;5.270;2023-03-14T06:37:58;17.60;77.80
10062;DHT22;5070;52.382;5.270;2023-03-14T06:40:27;17.60;77.70
10062;DHT22;5070;52.382;5.270;2023-03-14T06:42:59;17.60;77.70
10062;DHT22;5070;52.382;5.270;2023-03-14T06:45:29;17.60;77.60
10062;DHT22;5070;52.382;5.270;2023-03-14T06:48:00;17.60;78.20
10062;DHT22;5070;52.382;5.270;2023-03-14T06:50:38;17.60;77.50
10062;DHT22;5070;52.382;5.270;2023-03-14T06:53:07;17.60;77.60
10062;DHT22;5070;52.382;5.270;2023-03-14T06:55:38;17.60;77.90
10062;DHT22;5070;52.382;5.270;2023-03-14T06:58:07;17.70;78.10
10062;DHT22;5070;52.382;5.270;2023-03-14T07:00:40;17.70;78.20
10062;DHT22;5070;52.382;5.270;2023-03-14T07:03:13;17.70;77.90
10062;DHT22;5070;52.382;5.270;2023-03-14T07:05:45;17.70;78.90
10062;DHT22;5070;52.382;5.270;2023-03-14T07:08:13;17.80;78.90
10062;DHT22;5070;52.382;5.270;2023-03-14T07:10:44;17.80;78.30
10062;DHT22;5070;52.382;5.270;2023-03-14T07:13:12;17.80;78.10
10062;DHT22;5070;52.382;5.270;2023-03-14T07:16:01;17.80;78.10
10062;DHT22;5070;52.382;5.270;2023-03-14T07:18:31;17.80;78.20
10062;DHT22;5070;52.382;5.270;2023-03-14T07:21:05;17.80;78.20
10062;DHT22;5070;52.382;5.270;2023-03-14T07:23:33;17.80;78.10
10062;DHT22;5070;52.382;5.270;2023-03-14T07:26:06;17.80;78.10
10062;DHT22;5070;52.382;5.270;2023-03-14T07:28:36;17.80;78.00
10062;DHT22;5070;52.382;5.270;2023-03-14T07:31:09;17.90;77.90
10062;DHT22;5070;52.382;5.270;2023-03-14T07:33:39;17.90;77.70
10062;DHT22;5070;52.382;5.270;2023-03-14T07:36:08;17.90;77.70
10062;DHT22;5070;52.382;5.270;2023-03-14T07:38:40;17.90;78.00
10062;DHT22;5070;52.382;5.270;2023-03-14T07:41:16;17.90;78.60
10062;DHT22;5070;52.382;5.270;2023-03-14T07:44:06;17.90;78.10
10062;DHT22;5070;52.382;5.270;2023-03-14T07:46:34;17.90;78.40
10062;DHT22;5070;52.382;5.270;2023-03-14T07:49:04;18.00;78.60
10062;DHT22;5070;52.382;5.270;2023-03-14T07:51:32;18.00;78.70
10062;DHT22;5070;52.382;5.270;2023-03-14T07:54:00;18.00;79.10
10062;DHT22;5070;52.382;5.270;2023-03-14T07:56:29;18.00;79.10
10062;DHT22;5070;52.382;5.270;2023-03-14T07:58:57;18.00;79.50
10062;DHT22;5070;52.382;5.270;2023-03-14T08:01:25;18.00;80.10
10062;DHT22;5070;52.382;5.270;2023-03-14T08:03:53;18.10;78.70
10062;DHT22;5070;52.382;5.270;2023-03-14T08:06:22;18.10;79.40
10062;DHT22;5070;52.382;5.270;2023-03-14T08:08:50;18.10;78.10
10062;DHT22;5070;52.382;5.270;2023-03-14T08:11:18;18.10;79.50
10062;DHT22;5070;52.382;5.270;2023-03-14T08:13:46;18.10;80.40
10062;DHT22;5070;52.382;5.270;2023-03-14T08:16:16;18.20;80.00
10062;DHT22;5070;52.382;5.270;2023-03-14T08:18:44;18.20;80.60
10062;DHT22;5070;52.382;5.270;2023-03-14T08:21:13;18.20;78.10
10062;DHT22;5070;52.382;5.270;2023-03-14T08:23:44;18.20;79.30
10062;DHT22;5070;52.382;5.270;2023-03-14T08:26:12;18.20;80.70
10062;DHT22;5070;52.382;5.270;2023-03-14T08:28:40;18.20;80.70
10062;DHT22;5070;52.382;5.270;2023-03-14T08:31:07;18.30;80.10
10062;DHT22;5070;52.382;5.270;2023-03-14T08:33:35;18.30;80.20
10062;DHT22;5070;52.382;5.270;2023-03-14T08:36:04;18.30;81.40
10062;DHT22;5070;52.382;5.270;2023-03-14T08:38:32;18.30;81.10
10062;DHT22;5070;52.382;5.270;2023-03-14T08:41:02;18.30;81.30
10062;DHT22;5070;52.382;5.270;2023-03-14T08:43:31;18.30;79.60
10062;DHT22;5070;52.382;5.270;2023-03-14T08:46:00;18.30;81.60
10062;DHT22;5070;52.382;5.270;2023-03-14T08:48:29;18.30;80.40
10062;DHT22;5070;52.382;5.270;2023-03-14T08:51:01;18.30;80.40
10062;DHT22;5070;52.382;5.270;2023-03-14T08:53:32;18.40;79.20
10062;DHT22;5070;52.382;5.270;2023-03-14T08:56:04;18.40;79.20
10062;DHT22;5070;52.382;5.270;2023-03-14T08:58:33;18.40;79.30
10062;DHT22;5070;52.382;5.270;2023-03-14T09:01:01;18.40;80.50
10062;DHT22;5070;52.382;5.270;2023-03-14T09:03:30;18.40;80.10
10062;DHT22;5070;52.382;5.270;2023-03-14T09:06:02;18.40;81.70
10062;DHT22;5070;52.382;5.270;2023-03-14T09:08:31;18.40;80.70
10062;DHT22;5070;52.382;5.270;2023-03-14T09:10:59;18.40;80.90
10062;DHT22;5070;52.382;5.270;2023-03-14T09:13:28;18.40;80.80
10062;DHT22;5070;52.382;5.270;2023-03-14T09:15:56;18.40;79.30
10062;DHT22;5070;52.382;5.270;2023-03-14T09:18:24;18.40;79.90
10062;DHT22;5070;52.382;5.270;2023-03-14T09:20:52;18.40;79.60
10062;DHT22;5070;52.382;5.270;2023-03-14T09:23:20;18.40;79.60
10062;DHT22;5070;52.382;5.270;2023-03-14T09:25:48;18.40;79.70
10062;DHT22;5070;52.382;5.270;2023-03-14T09:28:16;18.40;79.70
10062;DHT22;5070;52.382;5.270;2023-03-14T09:30:46;18.40;79.00
10062;DHT22;5070;52.382;5.270;2023-03-14T09:33:14;18.40;79.60
10062;DHT22;5070;52.382;5.270;2023-03-14T09:35:42;18.40;79.90
10062;DHT22;5070;52.382;5.270;2023-03-14T09:38:10;18.40;80.00
10062;DHT22;5070;52.382;5.270;2023-03-14T09:40:38;18.40;80.00
10062;DHT22;5070;52.382;5.270;2023-03-14T09:43:10;18.30;80.40
10062;DHT22;5070;52.382;5.270;2023-03-14T09:45:41;18.40;79.90
10062;DHT22;5070;52.382;5.270;2023-03-14T09:48:16;18.30;80.20
10062;DHT22;5070;52.382;5.270;2023-03-14T09:50:49;18.40;80.70
10062;DHT22;5070;52.382;5.270;2023-03-14T09:53:23;18.30;79.90
10062;DHT22;5070;52.382;5.270;2023-03-14T09:55:54;18.40;80.80
10062;DHT22;5070;52.382;5.270;2023-03-14T09:58:24;18.30;80.70
10062;DHT22;5070;52.382;5.270;2023-03-14T10:00:55;18.30;80.60
10062;DHT22;5070;52.382;5.270;2023-03-14T10:03:30;18.40;80.90
10062;DHT22;5070;52.382;5.270;2023-03-14T10:05:59;18.40;81.30
10062;DHT22;5070;52.382;5.270;2023-03-14T10:08:27;18.30;80.90
10062;DHT22;5070;52.382;5.270;2023-03-14T10:10:55;18.30;81.60
10062;DHT22;5070;52.382;5.270;2023-03-14T10:13:25;18.40;81.60
10062;DHT22;5070;52.382;5.270;2023-03-14T10:15:58;18.30;81.60
10062;DHT22;5070;52.382;5.270;2023-03-14T10:18:34;18.30;81.40
10062;DHT22;5070;52.382;5.270;2023-03-14T10:21:05;18.30;81.10
10062;DHT22;5070;52.382;5.270;2023-03-14T10:23:34;18.30;81.10
10062;DHT22;5070;52.382;5.270;2023-03-14T10:26:08;18.30;81.00
10062;DHT22;5070;52.382;5.270;2023-03-14T10:28:39;18.30;81.10
10062;DHT22;5070;52.382;5.270;2023-03-14T10:31:08;18.30;80.60
10062;DHT22;5070;52.382;5.270;2023-03-14T10:33:38;18.30;80.60
10062;DHT22;5070;52.382;5.270;2023-03-14T10:36:16;18.30;80.40
10062;DHT22;5070;52.382;5.270;2023-03-14T10:38:45;18.30;80.20
10062;DHT22;5070;52.382;5.270;2023-03-14T10:41:17;18.30;80.00
10062;DHT22;5070;52.382;5.270;2023-03-14T10:43:45;18.30;80.00
10062;DHT22;5070;52.382;5.270;2023-03-14T10:46:19;18.30;79.90
10062;DHT22;5070;52.382;5.270;2023-03-14T10:49:23;18.30;79.00
10062;DHT22;5070;52.382;5.270;2023-03-14T10:51:53;18.40;79.70
10062;DHT22;5070;52.382;5.270;2023-03-14T10:54:22;18.40;80.40
10062;DHT22;5070;52.382;5.270;2023-03-14T10:56:58;18.40;80.10
10062;DHT22;5070;52.382;5.270;2023-03-14T10:59:29;18.50;80.30
10062;DHT22;5070;52.382;5.270;2023-03-14T11:02:00;18.50;80.40
10062;DHT22;5070;52.382;5.270;2023-03-14T11:04:47;18.50;80.30
10062;DHT22;5070;52.382;5.270;2023-03-14T11:07:26;18.60;80.90
10062;DHT22;5070;52.382;5.270;2023-03-14T11:09:58;18.60;80.20
10062;DHT22;5070;52.382;5.270;2023-03-14T11:12:36;18.60;79.00
10062;DHT22;5070;52.382;5.270;2023-03-14T11:15:11;18.50;75.80
10062;DHT22;5070;52.382;5.270;2023-03-14T11:17:50;18.50;78.00
10062;DHT22;5070;52.382;5.270;2023-03-14T11:20:33;18.60;78.90
10062;DHT22;5070;52.382;5.270;2023-03-14T11:23:08;18.60;79.40
10062;DHT22;5070;52.382;5.270;2023-03-14T11:25:47;18.70;79.30
10062;DHT22;5070;52.382;5.270;2023-03-14T11:28:19;18.70;77.90
10062;DHT22;5070;52.382;5.270;2023-03-14T11:30:52;18.70;78.30
10062;DHT22;5070;52.382;5.270;2023-03-14T11:33:24;18.70;78.60
10062;DHT22;5070;52.382;5.270;2023-03-14T11:35:59;18.80;78.30
10062;DHT22;5070;52.382;5.270;2023-03-14T11:38:33;18.80;78.70
10062;DHT22;5070;52.382;5.270;2023-03-14T11:41:09;18.80;79.00
10062;DHT22;5070;52.382;5.270;2023-03-14T11:43:39;18.80;79.60
10062;DHT22;5070;52.382;5.270;2023-03-14T11:46:13;18.80;79.70
10062;DHT22;5070;52.382;5.270;2023-03-14T11:48:46;18.80;79.30
10062;DHT22;5070;52.382;5.270;2023-03-14T11:51:24;18.80;79.60
10062;DHT22;5070;52.382;5.270;2023-03-14T11:54:00;18.80;79.90
10062;DHT22;5070;52.382;5.270;2023-03-14T11:56:33;18.90;79.90
10062;DHT22;5070;52.382;5.270;2023-03-14T11:59:05;18.80;79.60
10062;DHT22;5070;52.382;5.270;2023-03-14T12:01:48;18.90;79.90
10062;DHT22;5070;52.382;5.270;2023-03-14T12:04:25;18.90;80.00
10062;DHT22;5070;52.382;5.270;2023-03-14T12:07:03;18.90;80.30
10062;DHT22;5070;52.382;5.270;2023-03-14T12:09:34;18.90;80.50
10062;DHT22;5070;52.382;5.270;2023-03-14T12:12:04;18.90;80.50
10062;DHT22;5070;52.382;5.270;2023-03-14T12:14:34;19.00;80.70
10062;DHT22;5070;52.382;5.270;2023-03-14T12:17:05;19.00;80.60
10062;DHT22;5070;52.382;5.270;2023-03-14T12:19:36;19.00;80.90
10062;DHT22;5070;52.382;5.270;2023-03-14T12:22:24;19.00;80.90
10062;DHT22;5070;52.382;5.270;2023-03-14T12:24:57;19.00;81.00
10062;DHT22;5070;52.382;5.270;2023-03-14T12:30:37;19.00;80.90
10062;DHT22;5070;52.382;5.270;2023-03-14T12:33:29;18.90;80.80
10062;DHT22;5070;52.382;5.270;2023-03-14T12:36:00;19.00;80.40
10062;DHT22;5070;52.382;5.270;2023-03-14T12:38:48;19.00;80.60
10062;DHT22;5070;52.382;5.270;2023-03-14T12:41:21;19.00;80.60
10062;DHT22;5070;52.382;5.270;2023-03-14T12:43:51;19.00;80.60
10062;DHT22;5070;52.382;5.270;2023-03-14T12:46:21;19.10;80.80
10062;DHT22;5070;52.382;5.270;2023-03-14T12:48:50;19.10;80.80
10062;DHT22;5070;52.382;5.270;2023-03-14T12:51:28;19.10;80.60
10062;DHT22;5070;52.382;5.270;2023-03-14T12:54:16;19.10;80.60
10062;DHT22;5070;52.382;5.270;2023-03-14T12:56:59;19.10;80.50
10062;DHT22;5070;52.382;5.270;2023-03-14T12:59:30;19.10;80.80
10062;DHT22;5070;52.382;5.270;2023-03-14T13:02:19;19.10;80.90
10062;DHT22;5070;52.382;5.270;2023-03-14T13:04:52;19.10;80.90
10062;DHT22;5070;52.382;5.270;2023-03-14T13:10:21;19.10;81.10
10062;DHT22;5070;52.382;5.270;2023-03-14T13:12:51;19.10;80.90
10062;DHT22;5070;52.382;5.270;2023-03-14T13:15:26;19.10;81.60
10062;DHT22;5070;52.382;5.270;2023-03-14T13:17:59;19.10;81.50
10062;DHT22;5070;52.382;5.270;2023-03-14T13:20:31;19.10;80.70
10062;DHT22;5070;52.382;5.270;2023-03-14T13:23:00;19.20;80.60
10062;DHT22;5070;52.382;5.270;2023-03-14T13:25:32;19.20;80.80
10062;DHT22;5070;52.382;5.270;2023-03-14T13:28:02;19.20;80.90
10062;DHT22;5070;52.382;5.270;2023-03-14T13:30:39;19.20;80.90
10062;DHT22;5070;52.382;5.270;2023-03-14T13:33:14;19.20;81.10
10062;DHT22;5070;52.382;5.270;2023-03-14T13:35:44;19.20;81.00
10062;DHT22;5070;52.382;5.270;2023-03-14T13:38:17;19.20;80.90
10062;DHT22;5070;52.382;5.270;2023-03-14T13:40:51;19.10;80.60
10062;DHT22;5070;52.382;5.270;2023-03-14T13:43:24;19.20;80.00
10062;DHT22;5070;52.382;5.270;2023-03-14T13:45:55;19.10;80.10
10062;DHT22;5070;52.382;5.270;2023-03-14T13:48:27;19.20;80.40
10062;DHT22;5070;52.382;5.270;2023-03-14T13:50:59;19.20;80.30
10062;DHT22;5070;52.382;5.270;2023-03-14T13:53:31;19.20;80.20
10062;DHT22;5070;52.382;5.270;2023-03-14T13:56:03;19.20;81.20
10062;DHT22;5070;52.382;5.270;2023-03-14T13:58:34;19.20;81.20
10062;DHT22;5070;52.382;5.270;2023-03-14T14:01:10;19.20;79.60
10062;DHT22;5070;52.382;5.270;2023-03-14T14:03:41;19.20;79.30
10062;DHT22;5070;52.382;5.270;2023-03-14T14:06:25;19.20;79.30
10062;DHT22;5070;52.382;5.270;2023-03-14T14:08:54;19.20;79.30
10062;DHT22;5070;52.382;5.270;2023-03-14T14:11:42;19.20;79.10
10062;DHT22;5070;52.382;5.270;2023-03-14T14:14:29;19.20;79.50
10062;DHT22;5070;52.382;5.270;2023-03-14T14:17:05;19.20;79.30
10062;DHT22;5070;52.382;5.270;2023-03-14T14:19:34;19.20;79.30
10062;DHT22;5070;52.382;5.270;2023-03-14T14:22:04;19.20;79.40
10062;DHT22;5070;52.382;5.270;2023-03-14T14:24:34;19.20;79.80
10062;DHT22;5070;52.382;5.270;2023-03-14T14:27:13;19.20;80.10
10062;DHT22;5070;52.382;5.270;2023-03-14T14:29:41;19.20;80.00
10062;DHT22;5070;52.382;5.270;2023-03-14T14:32:12;19.20;79.80
10062;DHT22;5070;52.382;5.270;2023-03-14T14:34:42;19.20;79.10
10062;DHT22;5070;52.382;5.270;2023-03-14T14:37:19;19.20;78.80
10062;DHT22;5070;52.382;5.270;2023-03-14T14:39:49;19.20;78.50
10062;DHT22;5070;52.382;5.270;2023-03-14T14:42:21;19.20;78.80
10062;DHT22;5070;52.382;5.270;2023-03-14T14:44:53;19.20;77.60
10062;DHT22;5070;52.382;5.270;2023-03-14T14:47:23;19.20;77.20
10062;DHT22;5070;52.382;5.270;2023-03-14T14:49:53;19.20;76.60
10062;DHT22;5070;52.382;5.270;2023-03-14T14:52:31;19.20;78.40
10062;DHT22;5070;52.382;5.270;2023-03-14T14:55:03;19.20;77.40
10062;DHT22;5070;52.382;5.270;2023-03-14T14:57:40;19.20;77.00
10062;DHT22;5070;52.382;5.270;2023-03-14T15:00:18;19.10;76.60
10062;DHT22;5070;52.382;5.270;2023-03-14T15:02:48;19.20;79.70
10062;DHT22;5070;52.382;5.270;2023-03-14T15:05:17;19.20;78.20
10062;DHT22;5070;52.382;5.270;2023-03-14T15:07:46;19.20;78.60
10062;DHT22;5070;52.382;5.270;2023-03-14T15:10:16;19.20;79.30
10062;DHT22;5070;52.382;5.270;2023-03-14T15:12:45;19.20;79.10
10062;DHT22;5070;52.382;5.270;2023-03-14T15:15:15;19.20;80.10
10062;DHT22;5070;52.382;5.270;2023-03-14T15:17:43;19.20;80.80
10062;DHT22;5070;52.382;5.270;2023-03-14T15:20:13;19.20;80.00
10062;DHT22;5070;52.382;5.270;2023-03-14T15:22:41;19.20;80.80
10062;DHT22;5070;52.382;5.270;2023-03-14T15:25:10;19.20;81.10
10062;DHT22;5070;52.382;5.270;2023-03-14T15:28:00;19.20;78.80
10062;DHT22;5070;52.382;5.270;2023-03-14T15:30:28;19.20;79.10
10062;DHT22;5070;52.382;5.270;2023-03-14T15:32:56;19.20;78.70
10062;DHT22;5070;52.382;5.270;2023-03-14T15:35:24;19.20;80.50
10062;DHT22;5070;52.382;5.270;2023-03-14T15:37:52;19.20;80.60
10062;DHT22;5070;52.382;5.270;2023-03-14T15:40:24;19.20;79.40
10062;DHT22;5070;52.382;5.270;2023-03-14T15:42:56;19.20;78.20
10062;DHT22;5070;52.382;5.270;2023-03-14T15:45:26;19.10;73.10
10062;DHT22;5070;52.382;5.270;2023-03-14T15:47:54;19.10;71.00
10062;DHT22;5070;52.382;5.270;2023-03-14T15:50:23;19.10;71.60
10062;DHT22;5070;52.382;5.270;2023-03-14T15:52:51;19.10;76.70
10062;DHT22;5070;52.382;5.270;2023-03-14T15:55:19;19.10;76.70
10062;DHT22;5070;52.382;5.270;2023-03-14T15:57:48;19.10;73.50
10062;DHT22;5070;52.382;5.270;2023-03-14T16:00:19;19.10;74.80
10062;DHT22;5070;52.382;5.270;2023-03-14T16:02:49;19.10;75.20
10062;DHT22;5070;52.382;5.270;2023-03-14T16:05:19;19.10;75.90
10062;DHT22;5070;52.382;5.270;2023-03-14T16:07:48;19.10;76.00
10062;DHT22;5070;52.382;5.270;2023-03-14T16:10:16;19.10;76.60
10062;DHT22;5070;52.382;5.270;2023-03-14T16:12:44;19.10;77.20
10062;DHT22;5070;52.382;5.270;2023-03-14T16:15:12;19.00;77.80
10062;DHT22;5070;52.382;5.270;2023-03-14T16:17:40;19.00;76.80
10062;DHT22;5070;52.382;5.270;2023-03-14T16:20:11;19.00;78.40
10062;DHT22;5070;52.382;5.270;2023-03-14T16:22:39;19.00;75.70
10062;DHT22;5070;52.382;5.270;2023-03-14T16:25:09;19.00;78.30